sensor_id;sensor_type;location;lat;lon;timestamp;P1;durP1;ratioP1;P2;durP2;ratioP2
35376;SDS011;21480;51.642;4.834;2022-12-07T00:00:55;121.20;;;111.33;;
35376;SDS011;21480;51.642;4.834;2022-12-07T00:03:29;122.20;;;111.93;;
35376;SDS011;21480;51.642;4.834;2022-12-07T00:05:57;122.73;;;111.67;;
35376;SDS011;21480;51.642;4.834;2022-12-07T00:08:23;121.10;;;111.17;;
35376;SDS011;21480;51.642;4.834;2022-12-07T00:10:49;121.37;;;111.50;;
35376;SDS011;21480;51.642;4.834;2022-12-07T00:13:15;121.63;;;111.73;;
35376;SDS011;21480;51.642;4.834;2022-12-07T00:15:41;122.73;;;112.37;;
35376;SDS011;21480;51.642;4.834;2022-12-07T00:18:06;123.07;;;113.23;;
35376;SDS011;21480;51.642;4.834;2022-12-07T00:20:32;122.63;;;112.30;;
35376;SDS011;21480;51.642;4.834;2022-12-07T00:22:58;123.17;;;113.30;;
35376;SDS011;21480;51.642;4.834;2022-12-07T00:25:24;123.83;;;113.53;;
35376;SDS011;21480;51.642;4.834;2022-12-07T00:27:51;121.40;;;111.63;;
35376;SDS011;21480;51.642;4.834;2022-12-07T00:30:18;122.93;;;112.43;;
35376;SDS011;21480;51.642;4.834;2022-12-07T00:32:44;122.87;;;112.67;;
35376;SDS011;21480;51.642;4.834;2022-12-07T00:35:10;121.83;;;111.63;;
35376;SDS011;21480;51.642;4.834;2022-12-07T00:37:35;123.60;;;112.40;;
35376;SDS011;21480;51.642;4.834;2022-12-07T00:40:01;123.60;;;113.17;;
35376;SDS011;21480;51.642;4.834;2022-12-07T00:42:27;122.27;;;112.37;;
35376;SDS011;21480;51.642;4.834;2022-12-07T00:44:52;121.27;;;111.37;;
35376;SDS011;21480;51.642;4.834;2022-12-07T00:47:18;122.40;;;112.07;;
35376;SDS011;21480;51.642;4.834;2022-12-07T00:49:44;122.33;;;111.93;;
35376;SDS011;21480;51.642;4.834;2022-12-07T00:52:09;124.87;;;114.40;;
35376;SDS011;21480;51.642;4.834;2022-12-07T00:54:35;122.30;;;112.07;;
35376;SDS011;21480;51.642;4.834;2022-12-07T00:57:01;122.17;;;112.03;;
35376;SDS011;21480;51.642;4.834;2022-12-07T00:59:26;122.53;;;112.17;;
35376;SDS011;21480;51.642;4.834;2022-12-07T01:01:52;121.23;;;111.30;;
35376;SDS011;21480;51.642;4.834;2022-12-07T01:04:18;122.30;;;112.40;;
35376;SDS011;21480;51.642;4.834;2022-12-07T01:06:43;119.80;;;110.20;;
35376;SDS011;21480;51.642;4.834;2022-12-07T01:09:09;121.50;;;111.70;;
35376;SDS011;21480;51.642;4.834;2022-12-07T01:11:35;121.33;;;111.10;;
35376;SDS011;21480;51.642;4.834;2022-12-07T01:14:01;120.50;;;110.67;;
35376;SDS011;21480;51.642;4.834;2022-12-07T01:16:27;122.00;;;111.70;;
35376;SDS011;21480;51.642;4.834;2022-12-07T01:18:55;121.70;;;111.53;;
35376;SDS011;21480;51.642;4.834;2022-12-07T01:21:26;122.83;;;112.23;;
35376;SDS011;21480;51.642;4.834;2022-12-07T01:23:59;121.53;;;111.43;;
35376;SDS011;21480;51.642;4.834;2022-12-07T01:26:25;122.83;;;112.50;;
35376;SDS011;21480;51.642;4.834;2022-12-07T01:28:52;121.10;;;111.07;;
35376;SDS011;21480;51.642;4.834;2022-12-07T01:31:23;123.03;;;112.73;;
35376;SDS011;21480;51.642;4.834;2022-12-07T01:33:51;121.17;;;111.27;;
35376;SDS011;21480;51.642;4.834;2022-12-07T01:38:50;122.20;;;112.10;;
35376;SDS011;21480;51.642;4.834;2022-12-07T01:41:19;123.20;;;112.83;;
35376;SDS011;21480;51.642;4.834;2022-12-07T01:46:46;120.53;;;110.50;;
35376;SDS011;21480;51.642;4.834;2022-12-07T01:49:17;123.10;;;112.50;;
35376;SDS011;21480;51.642;4.834;2022-12-07T01:51:47;121.50;;;111.27;;
35376;SDS011;21480;51.642;4.834;2022-12-07T01:54:16;121.90;;;112.03;;
35376;SDS011;21480;51.642;4.834;2022-12-07T01:56:46;121.90;;;111.63;;
35376;SDS011;21480;51.642;4.834;2022-12-07T01:59:19;123.33;;;113.20;;
35376;SDS011;21480;51.642;4.834;2022-12-07T02:01:47;121.23;;;111.13;;
35376;SDS011;21480;51.642;4.834;2022-12-07T02:04:13;120.73;;;110.93;;
35376;SDS011;21480;51.642;4.834;2022-12-07T02:06:40;119.83;;;110.37;;
35376;SDS011;21480;51.642;4.834;2022-12-07T02:09:07;121.50;;;111.73;;
35376;SDS011;21480;51.642;4.834;2022-12-07T02:11:33;120.67;;;110.73;;
35376;SDS011;21480;51.642;4.834;2022-12-07T02:13:59;120.13;;;110.13;;
35376;SDS011;21480;51.642;4.834;2022-12-07T02:30:17;123.67;;;113.00;;
35376;SDS011;21480;51.642;4.834;2022-12-07T02:32:49;121.80;;;110.87;;
35376;SDS011;21480;51.642;4.834;2022-12-07T02:35:30;122.47;;;112.40;;
35376;SDS011;21480;51.642;4.834;2022-12-07T02:40:55;122.30;;;112.23;;
35376;SDS011;21480;51.642;4.834;2022-12-07T02:43:30;121.23;;;110.90;;
35376;SDS011;21480;51.642;4.834;2022-12-07T02:46:05;120.03;;;110.43;;
35376;SDS011;21480;51.642;4.834;2022-12-07T02:48:34;119.80;;;110.13;;
35376;SDS011;21480;51.642;4.834;2022-12-07T02:51:03;120.53;;;110.50;;
35376;SDS011;21480;51.642;4.834;2022-12-07T03:04:43;121.60;;;111.13;;
35376;SDS011;21480;51.642;4.834;2022-12-07T03:07:32;121.73;;;111.50;;
35376;SDS011;21480;51.642;4.834;2022-12-07T03:10:13;121.83;;;111.67;;
35376;SDS011;21480;51.642;4.834;2022-12-07T03:15:19;120.27;;;110.27;;
35376;SDS011;21480;51.642;4.834;2022-12-07T03:17:51;119.97;;;110.20;;
35376;SDS011;21480;51.642;4.834;2022-12-07T03:20:20;121.17;;;111.37;;
35376;SDS011;21480;51.642;4.834;2022-12-07T03:22:47;122.70;;;112.17;;
35376;SDS011;21480;51.642;4.834;2022-12-07T03:25:15;122.23;;;112.00;;
35376;SDS011;21480;51.642;4.834;2022-12-07T03:27:51;121.10;;;111.03;;
35376;SDS011;21480;51.642;4.834;2022-12-07T03:30:27;121.13;;;111.33;;
35376;SDS011;21480;51.642;4.834;2022-12-07T03:32:59;120.53;;;110.23;;
35376;SDS011;21480;51.642;4.834;2022-12-07T03:35:37;124.50;;;113.70;;
35376;SDS011;21480;51.642;4.834;2022-12-07T03:41:01;122.03;;;112.23;;
35376;SDS011;21480;51.642;4.834;2022-12-07T03:43:34;123.23;;;112.97;;
35376;SDS011;21480;51.642;4.834;2022-12-07T03:49:06;123.23;;;112.40;;
35376;SDS011;21480;51.642;4.834;2022-12-07T03:54:45;122.10;;;111.90;;
35376;SDS011;21480;51.642;4.834;2022-12-07T03:57:21;123.03;;;112.87;;
35376;SDS011;21480;51.642;4.834;2022-12-07T03:59:49;123.13;;;112.60;;
35376;SDS011;21480;51.642;4.834;2022-12-07T04:02:15;122.60;;;112.27;;
35376;SDS011;21480;51.642;4.834;2022-12-07T04:04:41;120.57;;;110.40;;
35376;SDS011;21480;51.642;4.834;2022-12-07T04:07:08;122.33;;;111.67;;
35376;SDS011;21480;51.642;4.834;2022-12-07T04:09:34;122.83;;;112.27;;
35376;SDS011;21480;51.642;4.834;2022-12-07T04:12:00;123.93;;;112.67;;
35376;SDS011;21480;51.642;4.834;2022-12-07T04:14:25;123.60;;;113.33;;
35376;SDS011;21480;51.642;4.834;2022-12-07T04:16:55;123.97;;;113.23;;
35376;SDS011;21480;51.642;4.834;2022-12-07T04:19:23;125.13;;;114.50;;
35376;SDS011;21480;51.642;4.834;2022-12-07T04:21:51;123.33;;;113.43;;
35376;SDS011;21480;51.642;4.834;2022-12-07T04:24:19;123.20;;;113.20;;
35376;SDS011;21480;51.642;4.834;2022-12-07T04:26:45;123.73;;;113.67;;
35376;SDS011;21480;51.642;4.834;2022-12-07T04:29:12;125.43;;;114.43;;
35376;SDS011;21480;51.642;4.834;2022-12-07T04:31:39;124.57;;;113.60;;
35376;SDS011;21480;51.642;4.834;2022-12-07T04:34:05;124.20;;;113.90;;
35376;SDS011;21480;51.642;4.834;2022-12-07T04:36:32;123.47;;;113.37;;
35376;SDS011;21480;51.642;4.834;2022-12-07T04:38:58;122.70;;;112.37;;
35376;SDS011;21480;51.642;4.834;2022-12-07T04:41:24;123.93;;;113.50;;
35376;SDS011;21480;51.642;4.834;2022-12-07T04:43:54;123.80;;;113.70;;
35376;SDS011;21480;51.642;4.834;2022-12-07T04:46:24;124.00;;;113.93;;
35376;SDS011;21480;51.642;4.834;2022-12-07T04:48:51;124.07;;;113.37;;
35376;SDS011;21480;51.642;4.834;2022-12-07T04:51:19;123.63;;;113.43;;
35376;SDS011;21480;51.642;4.834;2022-12-07T04:53:46;124.23;;;113.73;;
35376;SDS011;21480;51.642;4.834;2022-12-07T04:56:12;123.97;;;113.33;;
35376;SDS011;21480;51.642;4.834;2022-12-07T04:58:39;123.60;;;113.10;;
35376;SDS011;21480;51.642;4.834;2022-12-07T05:01:05;123.77;;;113.67;;
35376;SDS011;21480;51.642;4.834;2022-12-07T05:03:30;124.33;;;113.83;;
35376;SDS011;21480;51.642;4.834;2022-12-07T05:05:56;122.90;;;112.83;;
35376;SDS011;21480;51.642;4.834;2022-12-07T05:08:22;123.17;;;112.53;;
35376;SDS011;21480;51.642;4.834;2022-12-07T05:10:48;124.00;;;113.77;;
35376;SDS011;21480;51.642;4.834;2022-12-07T05:13:14;123.17;;;113.00;;
35376;SDS011;21480;51.642;4.834;2022-12-07T05:15:40;123.63;;;113.40;;
35376;SDS011;21480;51.642;4.834;2022-12-07T05:18:08;123.53;;;113.23;;
35376;SDS011;21480;51.642;4.834;2022-12-07T05:20:37;124.97;;;114.00;;
35376;SDS011;21480;51.642;4.834;2022-12-07T05:23:03;122.50;;;112.63;;
35376;SDS011;21480;51.642;4.834;2022-12-07T05:25:29;124.63;;;113.93;;
35376;SDS011;21480;51.642;4.834;2022-12-07T05:27:55;123.33;;;112.83;;
35376;SDS011;21480;51.642;4.834;2022-12-07T05:30:22;124.07;;;113.73;;
35376;SDS011;21480;51.642;4.834;2022-12-07T05:32:49;122.73;;;112.60;;
35376;SDS011;21480;51.642;4.834;2022-12-07T05:35:15;125.07;;;114.57;;
35376;SDS011;21480;51.642;4.834;2022-12-07T05:37:41;123.80;;;113.40;;
35376;SDS011;21480;51.642;4.834;2022-12-07T05:40:07;124.87;;;113.77;;
35376;SDS011;21480;51.642;4.834;2022-12-07T05:42:33;124.93;;;114.53;;
35376;SDS011;21480;51.642;4.834;2022-12-07T05:44:59;123.27;;;112.83;;
35376;SDS011;21480;51.642;4.834;2022-12-07T05:47:25;123.53;;;113.37;;
35376;SDS011;21480;51.642;4.834;2022-12-07T05:49:51;125.70;;;114.13;;
35376;SDS011;21480;51.642;4.834;2022-12-07T05:52:16;123.07;;;112.77;;
35376;SDS011;21480;51.642;4.834;2022-12-07T05:54:42;125.90;;;114.60;;
35376;SDS011;21480;51.642;4.834;2022-12-07T05:57:08;122.20;;;112.20;;
35376;SDS011;21480;51.642;4.834;2022-12-07T05:59:33;123.57;;;113.07;;
35376;SDS011;21480;51.642;4.834;2022-12-07T06:02:06;124.17;;;113.80;;
35376;SDS011;21480;51.642;4.834;2022-12-07T06:04:38;126.00;;;114.77;;
35376;SDS011;21480;51.642;4.834;2022-12-07T06:07:06;124.40;;;113.27;;
35376;SDS011;21480;51.642;4.834;2022-12-07T06:09:33;123.87;;;113.60;;
35376;SDS011;21480;51.642;4.834;2022-12-07T06:11:59;123.17;;;112.77;;
35376;SDS011;21480;51.642;4.834;2022-12-07T06:14:44;124.13;;;113.23;;
35376;SDS011;21480;51.642;4.834;2022-12-07T06:17:10;122.20;;;112.20;;
35376;SDS011;21480;51.642;4.834;2022-12-07T06:19:37;122.80;;;112.47;;
35376;SDS011;21480;51.642;4.834;2022-12-07T06:22:03;126.30;;;114.60;;
35376;SDS011;21480;51.642;4.834;2022-12-07T06:24:29;124.63;;;113.37;;
35376;SDS011;21480;51.642;4.834;2022-12-07T06:26:56;125.63;;;114.30;;
35376;SDS011;21480;51.642;4.834;2022-12-07T06:29:22;125.43;;;114.53;;
35376;SDS011;21480;51.642;4.834;2022-12-07T06:31:48;124.70;;;113.53;;
35376;SDS011;21480;51.642;4.834;2022-12-07T06:34:15;124.63;;;113.83;;
35376;SDS011;21480;51.642;4.834;2022-12-07T06:36:42;126.23;;;114.87;;
35376;SDS011;21480;51.642;4.834;2022-12-07T06:39:09;125.30;;;114.53;;
35376;SDS011;21480;51.642;4.834;2022-12-07T06:41:35;126.03;;;115.27;;
35376;SDS011;21480;51.642;4.834;2022-12-07T06:44:02;123.27;;;112.13;;
35376;SDS011;21480;51.642;4.834;2022-12-07T06:46:32;124.23;;;112.93;;
35376;SDS011;21480;51.642;4.834;2022-12-07T06:49:00;123.83;;;112.37;;
35376;SDS011;21480;51.642;4.834;2022-12-07T06:51:26;124.27;;;113.23;;
35376;SDS011;21480;51.642;4.834;2022-12-07T06:53:51;123.67;;;112.83;;
35376;SDS011;21480;51.642;4.834;2022-12-07T06:56:17;121.67;;;110.87;;
35376;SDS011;21480;51.642;4.834;2022-12-07T06:58:43;122.40;;;112.27;;
35376;SDS011;21480;51.642;4.834;2022-12-07T07:01:13;122.87;;;112.50;;
35376;SDS011;21480;51.642;4.834;2022-12-07T07:03:40;123.20;;;112.80;;
35376;SDS011;21480;51.642;4.834;2022-12-07T07:06:06;122.27;;;111.83;;
35376;SDS011;21480;51.642;4.834;2022-12-07T07:08:33;123.53;;;112.67;;
35376;SDS011;21480;51.642;4.834;2022-12-07T07:10:59;123.30;;;112.07;;
35376;SDS011;21480;51.642;4.834;2022-12-07T07:13:26;123.33;;;112.43;;
35376;SDS011;21480;51.642;4.834;2022-12-07T07:15:52;120.47;;;110.50;;
35376;SDS011;21480;51.642;4.834;2022-12-07T07:18:18;120.90;;;110.50;;
35376;SDS011;21480;51.642;4.834;2022-12-07T07:20:43;124.23;;;113.10;;
35376;SDS011;21480;51.642;4.834;2022-12-07T07:23:09;123.00;;;112.30;;
35376;SDS011;21480;51.642;4.834;2022-12-07T07:25:35;123.77;;;113.13;;
35376;SDS011;21480;51.642;4.834;2022-12-07T07:28:01;124.87;;;114.10;;
35376;SDS011;21480;51.642;4.834;2022-12-07T07:30:27;126.70;;;115.27;;
35376;SDS011;21480;51.642;4.834;2022-12-07T07:32:57;122.43;;;112.10;;
35376;SDS011;21480;51.642;4.834;2022-12-07T07:35:24;123.77;;;113.37;;
35376;SDS011;21480;51.642;4.834;2022-12-07T07:37:53;125.80;;;114.73;;
35376;SDS011;21480;51.642;4.834;2022-12-07T07:40:19;124.97;;;114.17;;
35376;SDS011;21480;51.642;4.834;2022-12-07T07:42:46;126.10;;;114.07;;
35376;SDS011;21480;51.642;4.834;2022-12-07T07:45:13;124.53;;;113.40;;
35376;SDS011;21480;51.642;4.834;2022-12-07T07:47:39;127.63;;;114.70;;
35376;SDS011;21480;51.642;4.834;2022-12-07T07:50:05;124.37;;;114.20;;
35376;SDS011;21480;51.642;4.834;2022-12-07T07:52:31;125.03;;;114.00;;
35376;SDS011;21480;51.642;4.834;2022-12-07T07:54:57;123.67;;;112.73;;
35376;SDS011;21480;51.642;4.834;2022-12-07T07:57:23;124.70;;;113.73;;
35376;SDS011;21480;51.642;4.834;2022-12-07T07:59:49;125.73;;;114.50;;
35376;SDS011;21480;51.642;4.834;2022-12-07T08:02:15;123.17;;;113.03;;
35376;SDS011;21480;51.642;4.834;2022-12-07T08:04:42;124.90;;;114.37;;
35376;SDS011;21480;51.642;4.834;2022-12-07T08:07:08;124.27;;;112.97;;
35376;SDS011;21480;51.642;4.834;2022-12-07T08:09:35;124.80;;;113.10;;
35376;SDS011;21480;51.642;4.834;2022-12-07T08:12:00;122.47;;;112.17;;
35376;SDS011;21480;51.642;4.834;2022-12-07T08:14:26;123.57;;;113.10;;
35376;SDS011;21480;51.642;4.834;2022-12-07T08:16:53;124.40;;;113.93;;
35376;SDS011;21480;51.642;4.834;2022-12-07T08:19:19;123.43;;;112.40;;
35376;SDS011;21480;51.642;4.834;2022-12-07T08:21:45;124.60;;;113.37;;
35376;SDS011;21480;51.642;4.834;2022-12-07T08:24:11;122.37;;;111.97;;
35376;SDS011;21480;51.642;4.834;2022-12-07T08:26:37;123.00;;;112.37;;
35376;SDS011;21480;51.642;4.834;2022-12-07T08:29:03;126.20;;;115.10;;
35376;SDS011;21480;51.642;4.834;2022-12-07T08:31:29;121.67;;;111.70;;
35376;SDS011;21480;51.642;4.834;2022-12-07T08:33:54;122.77;;;112.77;;
35376;SDS011;21480;51.642;4.834;2022-12-07T08:36:21;124.20;;;113.00;;
35376;SDS011;21480;51.642;4.834;2022-12-07T08:38:47;125.00;;;114.43;;
35376;SDS011;21480;51.642;4.834;2022-12-07T08:41:14;124.20;;;113.50;;
35376;SDS011;21480;51.642;4.834;2022-12-07T08:43:43;124.23;;;113.90;;
35376;SDS011;21480;51.642;4.834;2022-12-07T08:46:17;122.77;;;112.53;;
35376;SDS011;21480;51.642;4.834;2022-12-07T08:48:49;124.80;;;114.30;;
35376;SDS011;21480;51.642;4.834;2022-12-07T08:51:18;124.53;;;114.20;;
35376;SDS011;21480;51.642;4.834;2022-12-07T08:53:44;123.00;;;112.53;;
35376;SDS011;21480;51.642;4.834;2022-12-07T08:56:11;122.90;;;112.67;;
35376;SDS011;21480;51.642;4.834;2022-12-07T08:58:36;123.27;;;113.23;;
35376;SDS011;21480;51.642;4.834;2022-12-07T09:01:03;123.90;;;113.30;;
35376;SDS011;21480;51.642;4.834;2022-12-07T09:03:30;132.97;;;117.13;;
35376;SDS011;21480;51.642;4.834;2022-12-07T09:05:56;129.97;;;115.97;;
35376;SDS011;21480;51.642;4.834;2022-12-07T09:08:23;126.30;;;114.60;;
35376;SDS011;21480;51.642;4.834;2022-12-07T09:10:54;124.03;;;113.90;;
35376;SDS011;21480;51.642;4.834;2022-12-07T09:13:19;123.33;;;112.63;;
35376;SDS011;21480;51.642;4.834;2022-12-07T09:15:45;125.20;;;114.40;;
35376;SDS011;21480;51.642;4.834;2022-12-07T09:18:11;122.73;;;112.17;;
35376;SDS011;21480;51.642;4.834;2022-12-07T09:20:37;123.30;;;113.00;;
35376;SDS011;21480;51.642;4.834;2022-12-07T09:23:04;122.17;;;112.17;;
35376;SDS011;21480;51.642;4.834;2022-12-07T09:25:31;122.63;;;112.03;;
35376;SDS011;21480;51.642;4.834;2022-12-07T09:27:57;123.53;;;113.53;;
35376;SDS011;21480;51.642;4.834;2022-12-07T09:30:24;123.10;;;112.47;;
35376;SDS011;21480;51.642;4.834;2022-12-07T09:32:52;122.33;;;112.00;;
35376;SDS011;21480;51.642;4.834;2022-12-07T09:35:19;123.33;;;112.40;;
35376;SDS011;21480;51.642;4.834;2022-12-07T09:37:48;122.23;;;112.03;;
35376;SDS011;21480;51.642;4.834;2022-12-07T09:40:13;122.80;;;112.70;;
35376;SDS011;21480;51.642;4.834;2022-12-07T09:42:42;122.23;;;111.50;;
35376;SDS011;21480;51.642;4.834;2022-12-07T09:45:12;122.37;;;112.13;;
35376;SDS011;21480;51.642;4.834;2022-12-07T09:47:44;122.97;;;111.97;;
35376;SDS011;21480;51.642;4.834;2022-12-07T09:50:20;123.97;;;113.47;;
35376;SDS011;21480;51.642;4.834;2022-12-07T09:52:49;124.03;;;113.87;;
35376;SDS011;21480;51.642;4.834;2022-12-07T09:55:16;122.70;;;112.70;;
35376;SDS011;21480;51.642;4.834;2022-12-07T09:57:53;123.57;;;113.03;;
35376;SDS011;21480;51.642;4.834;2022-12-07T10:00:21;122.43;;;112.37;;
35376;SDS011;21480;51.642;4.834;2022-12-07T10:05:27;122.80;;;112.33;;
35376;SDS011;21480;51.642;4.834;2022-12-07T10:08:03;123.70;;;113.13;;
35376;SDS011;21480;51.642;4.834;2022-12-07T10:10:31;121.20;;;110.93;;
35376;SDS011;21480;51.642;4.834;2022-12-07T10:12:59;124.30;;;113.77;;
35376;SDS011;21480;51.642;4.834;2022-12-07T10:15:50;121.43;;;111.47;;
35376;SDS011;21480;51.642;4.834;2022-12-07T10:18:36;120.53;;;110.87;;
35376;SDS011;21480;51.642;4.834;2022-12-07T10:23:41;122.13;;;111.73;;
35376;SDS011;21480;51.642;4.834;2022-12-07T10:26:31;122.30;;;112.20;;
35376;SDS011;21480;51.642;4.834;2022-12-07T10:29:04;123.10;;;113.20;;
35376;SDS011;21480;51.642;4.834;2022-12-07T10:37:15;122.77;;;112.57;;
35376;SDS011;21480;51.642;4.834;2022-12-07T10:39:47;123.33;;;112.87;;
35376;SDS011;21480;51.642;4.834;2022-12-07T10:42:21;122.93;;;112.37;;
35376;SDS011;21480;51.642;4.834;2022-12-07T10:45:14;122.07;;;112.20;;
35376;SDS011;21480;51.642;4.834;2022-12-07T10:47:46;122.10;;;111.40;;
35376;SDS011;21480;51.642;4.834;2022-12-07T11:01:24;121.00;;;111.17;;
35376;SDS011;21480;51.642;4.834;2022-12-07T11:15:53;122.63;;;112.37;;
35376;SDS011;21480;51.642;4.834;2022-12-07T11:32:17;122.90;;;112.53;;
35376;SDS011;21480;51.642;4.834;2022-12-07T11:37:44;121.37;;;111.60;;
35376;SDS011;21480;51.642;4.834;2022-12-07T11:40:17;121.33;;;111.30;;
35376;SDS011;21480;51.642;4.834;2022-12-07T11:45:25;120.80;;;111.23;;
35376;SDS011;21480;51.642;4.834;2022-12-07T11:47:58;122.03;;;112.43;;
35376;SDS011;21480;51.642;4.834;2022-12-07T12:04:45;121.47;;;111.80;;
35376;SDS011;21480;51.642;4.834;2022-12-07T12:06:55;121.23;;;111.63;;
35376;SDS011;21480;51.642;4.834;2022-12-07T12:19:45;120.30;;;110.50;;
35376;SDS011;21480;51.642;4.834;2022-12-07T12:22:39;121.87;;;112.00;;
35376;SDS011;21480;51.642;4.834;2022-12-07T12:25:22;120.90;;;111.27;;
35376;SDS011;21480;51.642;4.834;2022-12-07T12:27:52;119.83;;;110.43;;
35376;SDS011;21480;51.642;4.834;2022-12-07T12:33:01;119.17;;;109.63;;
35376;SDS011;21480;51.642;4.834;2022-12-07T12:35:37;120.13;;;110.53;;
35376;SDS011;21480;51.642;4.834;2022-12-07T12:50:35;120.20;;;110.70;;
35376;SDS011;21480;51.642;4.834;2022-12-07T12:57:32;121.27;;;111.73;;
35376;SDS011;21480;51.642;4.834;2022-12-07T12:59:59;119.93;;;110.43;;
35376;SDS011;21480;51.642;4.834;2022-12-07T13:02:32;121.50;;;111.60;;
35376;SDS011;21480;51.642;4.834;2022-12-07T13:23:26;120.87;;;111.37;;
35376;SDS011;21480;51.642;4.834;2022-12-07T13:26:13;120.93;;;110.93;;
35376;SDS011;21480;51.642;4.834;2022-12-07T13:28:51;121.23;;;111.63;;
35376;SDS011;21480;51.642;4.834;2022-12-07T13:31:49;121.37;;;111.77;;
35376;SDS011;21480;51.642;4.834;2022-12-07T13:37:04;120.60;;;111.10;;
35376;SDS011;21480;51.642;4.834;2022-12-07T13:39:54;120.93;;;111.17;;
35376;SDS011;21480;51.642;4.834;2022-12-07T13:42:31;122.37;;;112.73;;
35376;SDS011;21480;51.642;4.834;2022-12-07T13:44:59;121.63;;;111.73;;
35376;SDS011;21480;51.642;4.834;2022-12-07T13:47:50;119.87;;;110.20;;
35376;SDS011;21480;51.642;4.834;2022-12-07T13:50:29;121.50;;;111.63;;
35376;SDS011;21480;51.642;4.834;2022-12-07T13:53:00;119.60;;;110.03;;
35376;SDS011;21480;51.642;4.834;2022-12-07T13:55:27;121.43;;;111.53;;
35376;SDS011;21480;51.642;4.834;2022-12-07T13:57:54;120.57;;;111.07;;
35376;SDS011;21480;51.642;4.834;2022-12-07T14:00:21;122.37;;;112.47;;
35376;SDS011;21480;51.642;4.834;2022-12-07T14:05:26;121.33;;;111.63;;
35376;SDS011;21480;51.642;4.834;2022-12-07T14:08:00;120.03;;;110.60;;
35376;SDS011;21480;51.642;4.834;2022-12-07T14:12:56;121.77;;;111.83;;
35376;SDS011;21480;51.642;4.834;2022-12-07T14:15:24;121.03;;;111.43;;
35376;SDS011;21480;51.642;4.834;2022-12-07T14:17:58;119.63;;;110.13;;
35376;SDS011;21480;51.642;4.834;2022-12-07T14:20:32;121.83;;;111.73;;
35376;SDS011;21480;51.642;4.834;2022-12-07T14:23:00;121.93;;;111.93;;
35376;SDS011;21480;51.642;4.834;2022-12-07T14:25:43;122.40;;;112.37;;
35376;SDS011;21480;51.642;4.834;2022-12-07T14:31:11;120.73;;;110.80;;
35376;SDS011;21480;51.642;4.834;2022-12-07T14:33:46;121.53;;;111.83;;
35376;SDS011;21480;51.642;4.834;2022-12-07T14:36:15;121.83;;;111.67;;
35376;SDS011;21480;51.642;4.834;2022-12-07T14:38:41;121.93;;;111.23;;
35376;SDS011;21480;51.642;4.834;2022-12-07T14:41:12;122.37;;;111.97;;
35376;SDS011;21480;51.642;4.834;2022-12-07T14:44:01;122.07;;;112.13;;
35376;SDS011;21480;51.642;4.834;2022-12-07T14:46:33;121.47;;;111.40;;
35376;SDS011;21480;51.642;4.834;2022-12-07T14:48:59;121.00;;;111.50;;
35376;SDS011;21480;51.642;4.834;2022-12-07T14:51:24;122.53;;;112.60;;
35376;SDS011;21480;51.642;4.834;2022-12-07T14:53:50;122.50;;;112.60;;
35376;SDS011;21480;51.642;4.834;2022-12-07T14:56:17;121.77;;;111.87;;
35376;SDS011;21480;51.642;4.834;2022-12-07T14:58:43;121.30;;;111.50;;
35376;SDS011;21480;51.642;4.834;2022-12-07T15:01:08;121.30;;;111.47;;
35376;SDS011;21480;51.642;4.834;2022-12-07T15:03:34;122.70;;;112.80;;
35376;SDS011;21480;51.642;4.834;2022-12-07T15:06:02;120.50;;;110.67;;
35376;SDS011;21480;51.642;4.834;2022-12-07T15:08:29;123.20;;;112.93;;
35376;SDS011;21480;51.642;4.834;2022-12-07T15:10:55;120.43;;;110.73;;
35376;SDS011;21480;51.642;4.834;2022-12-07T15:13:20;121.67;;;111.93;;
35376;SDS011;21480;51.642;4.834;2022-12-07T15:16:07;121.00;;;111.30;;
35376;SDS011;21480;51.642;4.834;2022-12-07T15:18:35;121.70;;;112.00;;
35376;SDS011;21480;51.642;4.834;2022-12-07T15:21:01;120.50;;;110.90;;
35376;SDS011;21480;51.642;4.834;2022-12-07T15:23:27;121.70;;;112.00;;
35376;SDS011;21480;51.642;4.834;2022-12-07T15:25:52;120.47;;;110.80;;
35376;SDS011;21480;51.642;4.834;2022-12-07T15:28:18;121.40;;;111.60;;
35376;SDS011;21480;51.642;4.834;2022-12-07T15:30:44;120.37;;;110.80;;
35376;SDS011;21480;51.642;4.834;2022-12-07T15:33:10;121.47;;;111.60;;
35376;SDS011;21480;51.642;4.834;2022-12-07T15:35:44;121.07;;;111.10;;
35376;SDS011;21480;51.642;4.834;2022-12-07T15:38:10;121.03;;;111.37;;
35376;SDS011;21480;51.642;4.834;2022-12-07T15:40:36;121.60;;;111.87;;
35376;SDS011;21480;51.642;4.834;2022-12-07T15:43:02;121.10;;;111.50;;
35376;SDS011;21480;51.642;4.834;2022-12-07T15:45:28;120.77;;;111.17;;
35376;SDS011;21480;51.642;4.834;2022-12-07T15:47:54;121.83;;;111.80;;
35376;SDS011;21480;51.642;4.834;2022-12-07T15:50:20;120.60;;;111.00;;
35376;SDS011;21480;51.642;4.834;2022-12-07T15:52:47;120.63;;;110.93;;
35376;SDS011;21480;51.642;4.834;2022-12-07T15:55:13;120.27;;;110.60;;
35376;SDS011;21480;51.642;4.834;2022-12-07T15:57:39;123.27;;;113.07;;
35376;SDS011;21480;51.642;4.834;2022-12-07T16:00:06;120.80;;;111.00;;
35376;SDS011;21480;51.642;4.834;2022-12-07T16:02:36;122.17;;;111.87;;
35376;SDS011;21480;51.642;4.834;2022-12-07T16:05:02;122.13;;;112.33;;
35376;SDS011;21480;51.642;4.834;2022-12-07T16:07:28;122.00;;;112.20;;
35376;SDS011;21480;51.642;4.834;2022-12-07T16:09:54;121.53;;;111.73;;
35376;SDS011;21480;51.642;4.834;2022-12-07T16:12:19;121.60;;;111.27;;
35376;SDS011;21480;51.642;4.834;2022-12-07T16:14:45;120.83;;;111.07;;
35376;SDS011;21480;51.642;4.834;2022-12-07T16:17:11;122.33;;;112.37;;
35376;SDS011;21480;51.642;4.834;2022-12-07T16:19:37;121.50;;;111.77;;
35376;SDS011;21480;51.642;4.834;2022-12-07T16:22:03;120.57;;;110.97;;
35376;SDS011;21480;51.642;4.834;2022-12-07T16:24:29;121.87;;;112.07;;
35376;SDS011;21480;51.642;4.834;2022-12-07T16:26:56;121.37;;;111.10;;
35376;SDS011;21480;51.642;4.834;2022-12-07T16:29:22;121.40;;;111.50;;
35376;SDS011;21480;51.642;4.834;2022-12-07T16:31:50;121.87;;;111.93;;
35376;SDS011;21480;51.642;4.834;2022-12-07T16:34:17;122.17;;;112.37;;
35376;SDS011;21480;51.642;4.834;2022-12-07T16:36:43;121.13;;;111.27;;
35376;SDS011;21480;51.642;4.834;2022-12-07T16:39:09;121.07;;;111.37;;
35376;SDS011;21480;51.642;4.834;2022-12-07T16:41:35;121.60;;;111.80;;
35376;SDS011;21480;51.642;4.834;2022-12-07T16:44:05;122.03;;;111.90;;
35376;SDS011;21480;51.642;4.834;2022-12-07T16:46:32;122.50;;;112.40;;
35376;SDS011;21480;51.642;4.834;2022-12-07T16:48:58;121.17;;;111.43;;
35376;SDS011;21480;51.642;4.834;2022-12-07T16:51:24;121.53;;;111.67;;
35376;SDS011;21480;51.642;4.834;2022-12-07T16:53:53;122.10;;;112.10;;
35376;SDS011;21480;51.642;4.834;2022-12-07T16:56:19;123.10;;;112.80;;